Time;durP1;ratioP1;P1;durP2;ratioP2;P2;SDS_P1;SDS_P2;PMS_P1;PMS_P2;Temp;Humidity;BMP_temperature;BMP_pressure;BME280_temperature;BME280_humidity;BME280_pressure;Samples;Min_cycle;Max_cycle;Signal;HPM_P1;HPM_P2
2021/05/04 00:02:10;;;;;;;;;;;22.40;99.90;;;;;;5053882;28;19911;-36
2021/05/04 00:04:36;;;;;;;;;;;22.40;99.90;;;;;;5053509;28;19904;-36
2021/05/04 00:07:02;;;;;;;;;;;22.40;99.90;;;;;;5051734;28;19909;-35
2021/05/04 00:09:27;;;;;;;;;;;22.40;99.90;;;;;;5053613;28;19951;-35
2021/05/04 00:11:53;;;;;;;;;;;22.40;99.90;;;;;;5053709;28;20415;-36
2021/05/04 00:14:19;;;;;;;;;;;22.40;99.90;;;;;;5053393;28;20359;-36
2021/05/04 00:16:45;;;;;;;;;;;22.40;99.90;;;;;;5085227;28;19909;-36
2021/05/04 00:19:11;;;;;;;;;;;22.40;99.90;;;;;;5051536;28;20011;-36
2021/05/04 00:21:36;;;;;;;;;;;22.40;99.90;;;;;;5053919;28;19909;-35
2021/05/04 00:24:03;;;;;;;;;;;22.40;99.90;;;;;;5053565;28;19905;-35
2021/05/04 00:26:29;;;;;;;;;;;22.40;99.90;;;;;;5051321;28;19978;-35
2021/05/04 00:28:54;;;;;;;;;;;22.30;99.90;;;;;;5053218;28;20005;-35
2021/05/04 00:31:20;;;;;;;;;;;22.40;99.90;;;;;;5052068;28;19912;-35
2021/05/04 00:33:46;;;;;;;;;;;22.30;99.90;;;;;;5057158;28;20394;-38
2021/05/04 00:36:11;;;;;;;;;;;22.30;99.90;;;;;;5057501;28;19958;-35
2021/05/04 00:38:37;;;;;;;;;;;22.30;99.90;;;;;;5057069;28;20278;-35
2021/05/04 00:41:03;;;;;;;;;;;22.40;99.90;;;;;;5057006;28;20397;-36
2021/05/04 00:43:30;;;;;;;;;;;22.30;99.90;;;;;;5088841;28;19942;-35
2021/05/04 00:45:55;;;;;;;;;;;22.30;99.90;;;;;;5056890;28;20351;-36
2021/05/04 00:48:21;;;;;;;;;;;22.30;99.90;;;;;;5071822;28;19911;-36
2021/05/04 00:50:47;;;;;;;;;;;22.30;99.90;;;;;;5057335;28;19920;-35
2021/05/04 00:53:13;;;;;;;;;;;22.40;99.90;;;;;;5057026;28;19912;-36
2021/05/04 00:55:39;;;;;;;;;;;22.40;99.90;;;;;;5056792;28;19905;-36
2021/05/04 00:58:05;;;;;;;;;;;22.20;99.90;;;;;;5056861;28;20275;-36
2021/05/04 01:00:30;;;;;;;;;;;22.30;99.90;;;;;;5056895;28;19923;-36
2021/05/04 01:03:00;;;;;;;;;;;22.30;99.90;;;;;;5054748;28;19904;-35
2021/05/04 01:05:25;;;;;;;;;;;22.30;99.90;;;;;;5056725;28;20359;-36
2021/05/04 01:07:51;;;;;;;;;;;22.30;99.90;;;;;;5056799;28;19911;-35
2021/05/04 01:10:17;;;;;;;;;;;22.30;99.90;;;;;;5056304;28;20011;-35
2021/05/04 01:12:43;;;;;;;;;;;22.30;99.90;;;;;;5056410;28;19946;-36
2021/05/04 01:15:08;;;;;;;;;;;22.30;99.90;;;;;;5088297;28;19909;-36
2021/05/04 01:17:35;;;;;;;;;;;22.30;99.90;;;;;;5071292;28;19912;-36
2021/05/04 01:20:00;;;;;;;;;;;22.20;99.90;;;;;;5056499;28;19951;-35
2021/05/04 01:22:26;;;;;;;;;;;22.20;99.90;;;;;;5056548;28;19909;-35
2021/05/04 01:24:52;;;;;;;;;;;22.20;99.90;;;;;;5054545;28;19905;-36
2021/05/04 01:27:17;;;;;;;;;;;22.30;99.90;;;;;;5055976;28;19908;-36
2021/05/04 01:29:43;;;;;;;;;;;22.20;99.90;;;;;;5087998;28;20003;-35
2021/05/04 01:32:09;;;;;;;;;;;22.20;99.90;;;;;;5054266;28;19994;-36
2021/05/04 01:34:35;;;;;;;;;;;22.20;99.90;;;;;;5088048;28;20332;-35
2021/05/04 01:37:01;;;;;;;;;;;;;;;;;;5055836;28;19909;-38
2021/05/04 01:39:27;;;;;;;;;;;;;;;;;;5054219;28;19905;-36
2021/05/04 01:41:53;;;;;;;;;;;22.70;99.90;;;;;;5054097;28;19935;-36
2021/05/04 01:44:18;;;;;;;;;;;22.20;99.90;;;;;;5053830;28;19909;-36
2021/05/04 01:46:44;;;;;;;;;;;22.20;99.90;;;;;;5056191;28;19905;-35
2021/05/04 01:49:09;;;;;;;;;;;22.20;99.90;;;;;;5055770;28;19909;-36
2021/05/04 01:51:37;;;;;;;;;;;22.20;99.90;;;;;;5087601;28;19976;-35
2021/05/04 01:54:03;;;;;;;;;;;22.20;99.90;;;;;;5055654;28;19912;-35
2021/05/04 01:56:29;;;;;;;;;;;22.20;99.90;;;;;;5055743;28;19905;-35
2021/05/04 01:59:00;;;;;;;;;;;22.20;99.90;;;;;;5053488;28;20416;-36
2021/05/04 02:01:25;;;;;;;;;;;22.20;99.90;;;;;;5055431;28;19990;-35
2021/05/04 02:03:51;;;;;;;;;;;22.20;99.90;;;;;;5053647;28;19909;-35
2021/05/04 02:06:16;;;;;;;;;;;22.20;99.90;;;;;;5070227;28;19954;-36
2021/05/04 02:08:42;;;;;;;;;;;22.20;99.90;;;;;;5055248;28;19939;-35
2021/05/04 02:11:08;;;;;;;;;;;22.10;99.90;;;;;;5055331;28;19908;-38
2021/05/04 02:13:33;;;;;;;;;;;22.20;99.90;;;;;;5070432;28;20299;-35
2021/05/04 02:15:59;;;;;;;;;;;22.10;99.90;;;;;;5053627;28;19905;-36
2021/05/04 02:18:25;;;;;;;;;;;22.10;99.90;;;;;;5055613;28;19904;-36
2021/05/04 02:20:51;;;;;;;;;;;22.10;99.90;;;;;;5055110;28;20367;-36
2021/05/04 02:23:16;;;;;;;;;;;22.10;99.90;;;;;;5053427;28;19905;-36
2021/05/04 02:25:42;;;;;;;;;;;22.10;99.90;;;;;;5055227;28;19978;-36
2021/05/04 02:28:07;;;;;;;;;;;22.10;99.90;;;;;;5053461;28;19970;-35
2021/05/04 02:30:33;;;;;;;;;;;22.10;99.90;;;;;;5052848;28;20007;-35
2021/05/04 02:32:59;;;;;;;;;;;21.90;99.90;;;;;;5055223;28;19943;-36
2021/05/04 02:35:25;;;;;;;;;;;22.00;99.90;;;;;;5055486;28;19996;-36
2021/05/04 02:37:51;;;;;;;;;;;21.90;99.90;;;;;;5054841;28;19905;-35
2021/05/04 02:40:16;;;;;;;;;;;21.90;99.90;;;;;;5054769;28;19911;-35
2021/05/04 02:42:42;;;;;;;;;;;21.90;99.90;;;;;;5055009;28;19904;-36
2021/05/04 02:45:08;;;;;;;;;;;21.90;99.90;;;;;;5053080;28;20343;-35
2021/05/04 02:47:34;;;;;;;;;;;21.90;99.90;;;;;;5052739;28;19905;-36
2021/05/04 02:49:59;;;;;;;;;;;21.90;99.90;;;;;;5052686;28;19913;-35
2021/05/04 02:52:25;;;;;;;;;;;21.90;99.90;;;;;;5069789;28;19953;-35
2021/05/04 02:54:50;;;;;;;;;;;21.80;99.90;;;;;;5054123;28;19955;-36
2021/05/04 02:57:17;;;;;;;;;;;21.80;99.90;;;;;;5054405;28;19905;-36
2021/05/04 02:59:43;;;;;;;;;;;21.80;99.90;;;;;;5054247;28;19917;-36
2021/05/04 03:02:09;;;;;;;;;;;21.80;99.90;;;;;;5054535;28;20054;-35
2021/05/04 03:04:35;;;;;;;;;;;21.80;99.90;;;;;;5054281;28;19905;-36
2021/05/04 03:07:01;;;;;;;;;;;21.80;99.90;;;;;;5054253;28;20355;-36
2021/05/04 03:09:26;;;;;;;;;;;21.80;99.90;;;;;;5054487;28;20379;-35
2021/05/04 03:11:52;;;;;;;;;;;21.80;99.90;;;;;;5054466;28;19905;-35
2021/05/04 03:14:18;;;;;;;;;;;21.80;99.90;;;;;;5069024;28;20004;-36
2021/05/04 03:16:44;;;;;;;;;;;21.70;99.90;;;;;;5085883;28;20003;-36
2021/05/04 03:19:09;;;;;;;;;;;21.70;99.90;;;;;;5054408;28;19951;-36
2021/05/04 03:21:35;;;;;;;;;;;21.70;99.90;;;;;;5054236;28;20326;-35
2021/05/04 03:24:00;;;;;;;;;;;21.70;99.90;;;;;;5054107;28;19905;-35
2021/05/04 03:26:26;;;;;;;;;;;21.70;99.90;;;;;;5052132;28;19932;-35
2021/05/04 03:28:52;;;;;;;;;;;21.70;99.90;;;;;;5068667;28;19904;-36
2021/05/04 03:31:17;;;;;;;;;;;21.70;99.90;;;;;;5051805;28;19909;-36
2021/05/04 03:33:43;;;;;;;;;;;21.60;99.90;;;;;;5085753;28;19954;-35
2021/05/04 03:36:09;;;;;;;;;;;21.60;99.90;;;;;;5085832;28;19951;-35
2021/05/04 03:38:34;;;;;;;;;;;21.60;99.90;;;;;;5053792;28;19904;-35
2021/05/04 03:41:00;;;;;;;;;;;21.60;99.90;;;;;;5051774;28;20355;-36
2021/05/04 03:43:26;;;;;;;;;;;21.60;99.90;;;;;;5053825;28;19965;-36
2021/05/04 03:45:51;;;;;;;;;;;21.60;99.90;;;;;;5053889;28;19915;-36
2021/05/04 03:48:17;;;;;;;;;;;21.60;99.90;;;;;;5051798;28;19905;-35
2021/05/04 03:50:44;;;;;;;;;;;21.60;99.90;;;;;;5063208;28;19916;-35
2021/05/04 03:53:10;;;;;;;;;;;21.60;99.90;;;;;;5073709;28;20394;-35
2021/05/04 03:55:35;;;;;;;;;;;21.60;99.90;;;;;;5073531;28;19908;-35
2021/05/04 03:58:01;;;;;;;;;;;21.70;99.90;;;;;;5073801;28;19904;-36
2021/05/04 04:00:27;;;;;;;;;;;21.60;99.90;;;;;;5073215;28;19917;-35
2021/05/04 04:02:52;;;;;;;;;;;21.60;99.90;;;;;;5073917;28;19908;-35
2021/05/04 04:05:18;;;;;;;;;;;21.70;99.90;;;;;;5073899;28;20003;-35
2021/05/04 04:07:44;;;;;;;;;;;21.60;99.90;;;;;;5077712;28;19904;-35
2021/05/04 04:10:11;;;;;;;;;;;21.60;99.90;;;;;;5092770;28;20293;-36
2021/05/04 04:12:37;;;;;;;;;;;21.60;99.90;;;;;;5077345;28;19958;-36
2021/05/04 04:15:03;;;;;;;;;;;;;;;;;;5077804;28;19914;-35
2021/05/04 04:17:28;;;;;;;;;;;21.50;99.90;;;;;;5092647;28;20247;-35
2021/05/04 04:19:54;;;;;;;;;;;21.50;99.90;;;;;;5077852;28;19999;-36
2021/05/04 04:22:20;;;;;;;;;;;21.50;99.90;;;;;;5077796;28;20275;-36
2021/05/04 04:24:45;;;;;;;;;;;21.50;99.90;;;;;;5075430;28;19974;-36
2021/05/04 04:27:11;;;;;;;;;;;21.50;99.90;;;;;;5077639;28;19904;-36
2021/05/04 04:29:37;;;;;;;;;;;21.50;99.90;;;;;;5077280;28;19931;-36
2021/05/04 04:32:03;;;;;;;;;;;21.50;99.90;;;;;;5092434;28;19908;-34
2021/05/04 04:34:30;;;;;;;;;;;21.50;99.90;;;;;;5077337;28;19905;-34
2021/05/04 04:36:55;;;;;;;;;;;21.50;99.90;;;;;;5092073;28;19931;-35
2021/05/04 04:39:21;;;;;;;;;;;21.50;99.90;;;;;;5077359;28;20590;-34
2021/05/04 04:41:47;;;;;;;;;;;21.50;99.90;;;;;;5092190;28;20274;-35
2021/05/04 04:44:12;;;;;;;;;;;21.50;99.90;;;;;;5077158;28;19908;-34
2021/05/04 04:46:41;;;;;;;;;;;21.40;99.90;;;;;;5076929;28;20355;-34
2021/05/04 04:49:08;;;;;;;;;;;21.40;99.90;;;;;;5075018;28;19938;-35
2021/05/04 04:51:33;;;;;;;;;;;21.40;99.90;;;;;;5092082;28;19939;-35
2021/05/04 04:53:59;;;;;;;;;;;21.40;99.90;;;;;;5091858;28;19944;-34
2021/05/04 04:56:25;;;;;;;;;;;21.40;99.90;;;;;;5076743;28;20016;-35
2021/05/04 04:58:50;;;;;;;;;;;21.40;99.90;;;;;;5076038;28;19912;-35
2021/05/04 05:01:16;;;;;;;;;;;21.40;99.90;;;;;;5077579;28;20374;-35
2021/05/04 05:03:41;;;;;;;;;;;21.40;99.90;;;;;;5076556;28;20302;-37
2021/05/04 05:06:07;;;;;;;;;;;21.40;99.90;;;;;;5041583;28;19936;-34
2021/05/04 05:08:33;;;;;;;;;;;21.40;99.90;;;;;;5041501;28;19919;-35
2021/05/04 05:10:58;;;;;;;;;;;21.40;99.90;;;;;;5041336;28;19913;-34
2021/05/04 05:13:24;;;;;;;;;;;21.40;99.90;;;;;;5041566;28;19953;-35
2021/05/04 05:15:49;;;;;;;;;;;21.40;99.90;;;;;;5076383;28;19936;-35
2021/05/04 05:18:15;;;;;;;;;;;21.40;99.90;;;;;;5076012;28;20374;-34
2021/05/04 05:20:41;;;;;;;;;;;21.40;99.90;;;;;;5041315;28;19904;-34
2021/05/04 05:23:07;;;;;;;;;;;21.40;99.90;;;;;;5074491;28;19904;-34
2021/05/04 05:25:34;;;;;;;;;;;21.40;99.90;;;;;;5041174;28;19927;-34
2021/05/04 05:28:00;;;;;;;;;;;21.40;99.90;;;;;;5076099;28;19904;-35
2021/05/04 05:30:25;;;;;;;;;;;21.40;99.90;;;;;;5076800;28;19917;-34
2021/05/04 05:32:51;;;;;;;;;;;21.40;99.90;;;;;;5076163;28;20363;-35
2021/05/04 05:35:17;;;;;;;;;;;21.40;99.90;;;;;;5041157;28;19911;-35
2021/05/04 05:37:42;;;;;;;;;;;21.40;99.90;;;;;;5076571;28;19904;-34
2021/05/04 05:40:08;;;;;;;;;;;21.40;99.90;;;;;;5074352;28;19990;-34
2021/05/04 05:42:34;;;;;;;;;;;21.40;99.90;;;;;;5091073;28;19904;-34
2021/05/04 05:44:59;;;;;;;;;;;21.40;99.90;;;;;;5040605;28;19904;-34
2021/05/04 05:47:25;;;;;;;;;;;21.40;99.90;;;;;;5075931;28;19915;-34
2021/05/04 05:49:51;;;;;;;;;;;21.40;99.90;;;;;;5075741;28;19908;-34
2021/05/04 05:52:16;;;;;;;;;;;21.50;99.90;;;;;;5076131;28;19904;-34
2021/05/04 05:54:42;;;;;;;;;;;21.50;99.90;;;;;;5073963;28;19919;-35
2021/05/04 05:57:07;;;;;;;;;;;21.50;99.90;;;;;;5090760;28;19949;-34
2021/05/04 05:59:33;;;;;;;;;;;21.50;99.90;;;;;;5090639;28;19916;-34
2021/05/04 06:01:59;;;;;;;;;;;21.50;99.90;;;;;;5090648;28;19904;-34
2021/05/04 06:04:24;;;;;;;;;;;21.50;99.90;;;;;;5090659;28;19911;-35
2021/05/04 06:06:50;;;;;;;;;;;21.50;99.90;;;;;;5076022;28;19910;-36
2021/05/04 06:09:16;;;;;;;;;;;21.50;99.90;;;;;;5090571;28;20268;-34
2021/05/04 06:11:41;;;;;;;;;;;21.50;99.90;;;;;;5075738;28;20359;-34
2021/05/04 06:14:07;;;;;;;;;;;21.50;99.90;;;;;;5075346;28;20308;-35
2021/05/04 06:16:33;;;;;;;;;;;21.50;99.90;;;;;;5075509;28;19916;-34
2021/05/04 06:18:58;;;;;;;;;;;21.50;99.90;;;;;;5039971;28;19905;-34
2021/05/04 06:21:24;;;;;;;;;;;21.50;99.90;;;;;;5072918;28;19934;-35
2021/05/04 06:23:51;;;;;;;;;;;21.50;99.90;;;;;;5074733;28;19904;-35
2021/05/04 06:26:18;;;;;;;;;;;21.60;99.90;;;;;;5074870;28;19904;-35
2021/05/04 06:28:48;;;;;;;;;;;21.60;99.90;;;;;;5074078;28;20259;-35
2021/05/04 06:31:17;;;;;;;;;;;21.60;99.90;;;;;;5074238;28;21532;-35
2021/05/04 06:33:43;;;;;;;;;;;21.50;99.90;;;;;;5074921;28;19944;-34
2021/05/04 06:36:09;;;;;;;;;;;21.60;99.90;;;;;;5074377;28;19943;-34
2021/05/04 06:38:35;;;;;;;;;;;21.60;99.90;;;;;;5074507;28;19951;-34
2021/05/04 06:41:01;;;;;;;;;;;21.60;99.90;;;;;;5074805;28;19904;-35
2021/05/04 06:43:27;;;;;;;;;;;21.60;99.90;;;;;;5089929;28;19905;-35
2021/05/04 06:45:53;;;;;;;;;;;21.60;99.90;;;;;;5075110;28;19982;-34
2021/05/04 06:48:19;;;;;;;;;;;21.50;99.90;;;;;;5075128;28;19909;-34
2021/05/04 06:50:45;;;;;;;;;;;21.60;99.90;;;;;;5074655;28;19912;-34
2021/05/04 06:53:10;;;;;;;;;;;21.60;99.90;;;;;;5074496;28;19927;-34
2021/05/04 06:55:36;;;;;;;;;;;21.60;99.90;;;;;;5074621;28;19912;-35
2021/05/04 06:58:02;;;;;;;;;;;21.60;99.90;;;;;;5074662;28;19908;-35
2021/05/04 07:00:28;;;;;;;;;;;21.60;99.90;;;;;;5074720;28;20367;-35
2021/05/04 07:02:53;;;;;;;;;;;21.60;99.90;;;;;;5074366;28;19927;-35
2021/05/04 07:05:19;;;;;;;;;;;21.50;99.90;;;;;;5074447;28;19904;-35
2021/05/04 07:07:45;;;;;;;;;;;21.60;99.90;;;;;;5074597;28;19904;-35
2021/05/04 07:10:11;;;;;;;;;;;21.60;99.90;;;;;;5074365;28;19920;-34
2021/05/04 07:12:36;;;;;;;;;;;21.60;99.90;;;;;;5074305;28;19905;-35
2021/05/04 07:15:02;;;;;;;;;;;21.50;99.90;;;;;;5074429;28;19904;-34
2021/05/04 07:17:28;;;;;;;;;;;21.50;99.90;;;;;;5089710;28;19904;-34
2021/05/04 07:19:55;;;;;;;;;;;21.50;99.90;;;;;;5074274;28;19904;-35
2021/05/04 07:22:23;;;;;;;;;;;21.50;99.90;;;;;;5074036;28;19904;-34
2021/05/04 07:24:49;;;;;;;;;;;21.60;99.90;;;;;;5074092;28;19905;-34
2021/05/04 07:27:15;;;;;;;;;;;21.50;99.90;;;;;;5072190;28;19904;-34
2021/05/04 07:29:40;;;;;;;;;;;21.50;99.90;;;;;;5074330;28;19913;-35
2021/05/04 07:32:06;;;;;;;;;;;21.50;99.90;;;;;;5073930;28;19905;-34
2021/05/04 07:34:31;;;;;;;;;;;21.50;99.90;;;;;;5089025;28;19905;-35
2021/05/04 07:36:57;;;;;;;;;;;21.50;99.90;;;;;;5072205;28;19905;-34
2021/05/04 07:39:23;;;;;;;;;;;21.50;99.90;;;;;;5074323;28;20329;-35
2021/05/04 07:41:48;;;;;;;;;;;21.50;99.90;;;;;;5072351;28;20377;-35
2021/05/04 07:44:14;;;;;;;;;;;21.50;99.90;;;;;;5073813;28;19963;-35
2021/05/04 07:46:40;;;;;;;;;;;21.50;99.90;;;;;;5072102;28;19904;-35
2021/05/04 07:49:10;;;;;;;;;;;21.50;99.90;;;;;;5074037;28;20343;-35
2021/05/04 07:51:35;;;;;;;;;;;21.50;99.90;;;;;;5073677;28;20051;-34
2021/05/04 07:54:01;;;;;;;;;;;21.50;99.90;;;;;;5073767;28;19942;-35
2021/05/04 07:56:26;;;;;;;;;;;21.50;99.90;;;;;;5074013;28;20398;-35
2021/05/04 07:58:52;;;;;;;;;;;21.50;99.90;;;;;;5088416;28;19943;-35
2021/05/04 08:01:18;;;;;;;;;;;21.50;99.90;;;;;;5055071;28;19924;-35
2021/05/04 08:03:44;;;;;;;;;;;21.50;99.90;;;;;;5073603;28;20313;-35
2021/05/04 08:06:09;;;;;;;;;;;21.50;99.90;;;;;;5073743;28;19908;-35
2021/05/04 08:08:35;;;;;;;;;;;21.50;99.90;;;;;;5038490;28;19965;-35
2021/05/04 08:11:01;;;;;;;;;;;21.50;99.90;;;;;;5065720;28;20433;-35
2021/05/04 08:13:27;;;;;;;;;;;21.50;99.90;;;;;;5034991;28;20355;-34
2021/05/04 08:15:53;;;;;;;;;;;21.50;99.90;;;;;;5053516;28;19908;-34
2021/05/04 08:18:19;;;;;;;;;;;21.50;99.90;;;;;;5053360;28;20426;-34
2021/05/04 08:20:52;;;;;;;;;;;21.50;99.90;;;;;;5053708;28;20011;-34
2021/05/04 08:23:18;;;;;;;;;;;21.50;99.90;;;;;;5053771;28;20417;-34
2021/05/04 08:25:44;;;;;;;;;;;21.50;99.90;;;;;;5053472;28;19909;-35
2021/05/04 08:28:10;;;;;;;;;;;21.50;99.90;;;;;;5065840;28;20260;-34
2021/05/04 08:30:35;;;;;;;;;;;21.50;99.90;;;;;;5073616;28;19917;-35
2021/05/04 08:33:01;;;;;;;;;;;21.50;99.90;;;;;;5088470;28;20287;-35
2021/05/04 08:35:27;;;;;;;;;;;21.50;99.90;;;;;;5071851;28;19908;-35
2021/05/04 08:37:53;;;;;;;;;;;21.50;99.90;;;;;;5088323;28;19990;-35
2021/05/04 08:40:19;;;;;;;;;;;21.50;99.90;;;;;;5073257;28;20389;-34
2021/05/04 08:42:45;;;;;;;;;;;21.60;99.90;;;;;;5073366;28;19913;-34
2021/05/04 08:45:12;;;;;;;;;;;21.50;99.90;;;;;;5073557;28;19909;-35
2021/05/04 08:47:37;;;;;;;;;;;21.60;99.90;;;;;;5073315;28;19961;-34
2021/05/04 08:50:03;;;;;;;;;;;21.60;99.90;;;;;;5073366;28;19917;-35
2021/05/04 08:52:29;;;;;;;;;;;21.50;99.90;;;;;;5054924;28;19908;-35
2021/05/04 08:54:54;;;;;;;;;;;21.60;99.90;;;;;;5075389;28;20275;-35
2021/05/04 08:57:20;;;;;;;;;;;21.60;99.90;;;;;;5041689;28;19908;-34
2021/05/04 08:59:46;;;;;;;;;;;21.60;99.90;;;;;;5041468;28;20003;-35
2021/05/04 09:02:11;;;;;;;;;;;21.60;99.90;;;;;;5076438;28;19912;-35
2021/05/04 09:07:17;;;;;;;;;;;21.60;99.90;;;;;;5056529;28;19909;-35
2021/05/04 09:10:07;;;;;;;;;;;21.60;99.90;;;;;;5056307;28;19916;-35
2021/05/04 09:12:39;;;;;;;;;;;21.60;99.90;;;;;;5056394;28;19908;-35
2021/05/04 09:15:23;;;;;;;;;;;21.60;99.90;;;;;;5056310;28;19908;-34
2021/05/04 09:17:50;;;;;;;;;;;21.60;99.90;;;;;;5056312;28;20390;-35
2021/05/04 09:20:28;;;;;;;;;;;21.60;99.90;;;;;;5056488;28;19950;-35
2021/05/04 09:23:05;;;;;;;;;;;21.60;99.90;;;;;;5056602;28;19909;-34
2021/05/04 09:25:37;;;;;;;;;;;21.60;99.90;;;;;;5056798;28;20290;-35
2021/05/04 09:28:09;;;;;;;;;;;21.60;99.90;;;;;;5056334;28;19915;-35
2021/05/04 09:30:35;;;;;;;;;;;21.60;99.90;;;;;;5055872;28;19917;-34
2021/05/04 09:33:07;;;;;;;;;;;21.60;99.90;;;;;;5056059;28;19909;-34
2021/05/04 09:35:33;;;;;;;;;;;21.60;99.90;;;;;;5054595;28;20314;-35
2021/05/04 09:38:05;;;;;;;;;;;21.60;99.90;;;;;;5037733;28;19920;-35
2021/05/04 09:40:36;;;;;;;;;;;21.60;99.90;;;;;;5061100;28;19952;-35
2021/05/04 09:43:02;;;;;;;;;;;21.60;99.80;;;;;;5055854;28;19909;-35
2021/05/04 09:45:28;;;;;;;;;;;21.60;99.50;;;;;;5070782;28;19958;-35
2021/05/04 09:48:12;;;;;;;;;;;21.60;99.80;;;;;;5056401;28;19963;-34
2021/05/04 09:50:55;;;;;;;;;;;21.60;99.30;;;;;;5055468;28;19924;-35
2021/05/04 09:53:22;;;;;;;;;;;21.60;99.50;;;;;;5055669;28;19951;-34
2021/05/04 09:55:55;;;;;;;;;;;21.70;99.50;;;;;;5059173;28;19915;-35
2021/05/04 09:58:30;;;;;;;;;;;21.70;99.30;;;;;;5075951;28;19908;-36
2021/05/04 10:00:56;;;;;;;;;;;21.70;99.20;;;;;;5091044;28;20333;-34
2021/05/04 10:03:22;;;;;;;;;;;21.70;99.30;;;;;;5075456;28;19909;-35
2021/05/04 10:05:48;;;;;;;;;;;21.70;99.20;;;;;;5075753;28;19909;-34
2021/05/04 10:08:15;;;;;;;;;;;21.70;99.20;;;;;;5075601;28;19908;-34
2021/05/04 10:10:41;;;;;;;;;;;;;;;;;;5075513;28;20295;-34
2021/05/04 10:13:08;;;;;;;;;;;21.80;97.60;;;;;;5074493;28;19909;-35
2021/05/04 10:15:34;;;;;;;;;;;;;;;;;;5075285;28;19908;-34
2021/05/04 10:18:00;;;;;;;;;;;21.90;97.10;;;;;;5075962;28;20359;-34
2021/05/04 10:20:27;;;;;;;;;;;22.00;97.30;;;;;;5075496;28;20442;-35
2021/05/04 10:22:53;;;;;;;;;;;22.10;97.30;;;;;;5075201;28;20275;-34
2021/05/04 10:25:20;;;;;;;;;;;22.30;97.30;;;;;;5075437;28;19919;-34
2021/05/04 10:27:50;;;;;;;;;;;22.50;96.90;;;;;;5075122;28;20001;-34
2021/05/04 10:30:17;;;;;;;;;;;22.70;95.70;;;;;;5075162;28;19962;-35
2021/05/04 10:32:43;;;;;;;;;;;;;;;;;;5074893;28;19915;-34
2021/05/04 10:35:27;;;;;;;;;;;23.20;94.80;;;;;;5075109;28;20003;-35
2021/05/04 10:37:57;;;;;;;;;;;23.40;95.00;;;;;;5075007;28;19909;-34
2021/05/04 10:40:23;;;;;;;;;;;23.60;94.60;;;;;;5075429;28;19923;-35
2021/05/04 10:42:49;;;;;;;;;;;;;;;;;;5089910;28;19908;-35
2021/05/04 10:45:15;;;;;;;;;;;23.80;99.90;;;;;;5075123;28;19914;-35
2021/05/04 10:47:44;;;;;;;;;;;24.10;94.20;;;;;;5074929;28;20672;-34
2021/05/04 10:50:11;;;;;;;;;;;24.20;94.10;;;;;;5074820;28;20001;-34
2021/05/04 10:52:49;;;;;;;;;;;24.30;94.00;;;;;;5074809;28;19942;-34
2021/05/04 10:55:15;;;;;;;;;;;24.50;98.10;;;;;;5075129;28;20262;-35
2021/05/04 10:58:05;;;;;;;;;;;24.50;93.20;;;;;;5074731;28;20002;-35
2021/05/04 11:00:52;;;;;;;;;;;24.60;93.20;;;;;;5070836;28;19924;-35
2021/05/04 11:03:33;;;;;;;;;;;24.70;93.10;;;;;;5074566;28;20370;-34
2021/05/04 11:06:03;;;;;;;;;;;24.80;93.00;;;;;;5074361;28;19908;-35
2021/05/04 11:08:41;;;;;;;;;;;24.80;92.20;;;;;;5055834;28;20252;-34
2021/05/04 11:11:26;;;;;;;;;;;24.90;91.20;;;;;;5074349;28;19973;-35
2021/05/04 11:13:53;;;;;;;;;;;24.90;91.00;;;;;;5074452;28;19934;-35
2021/05/04 11:16:40;;;;;;;;;;;25.00;91.00;;;;;;5073806;28;19912;-34
2021/05/04 11:19:06;;;;;;;;;;;25.00;90.00;;;;;;5074174;28;20450;-34
2021/05/04 11:21:36;;;;;;;;;;;25.00;90.60;;;;;;5089284;28;20007;-34
2021/05/04 11:24:02;;;;;;;;;;;24.90;90.40;;;;;;5072529;28;19931;-35
2021/05/04 11:26:46;;;;;;;;;;;24.90;90.40;;;;;;5073791;28;19908;-35
2021/05/04 11:29:16;;;;;;;;;;;24.90;90.60;;;;;;5074072;28;20343;-34
2021/05/04 11:31:43;;;;;;;;;;;24.80;90.50;;;;;;5074033;28;19912;-35
2021/05/04 11:34:42;;;;;;;;;;;24.70;88.90;;;;;;5073710;28;19979;-35
2021/05/04 11:37:12;;;;;;;;;;;24.60;89.40;;;;;;5051992;28;19913;-34
2021/05/04 11:39:38;;;;;;;;;;;24.60;88.60;;;;;;5005385;28;19909;-35
2021/05/04 11:42:04;;;;;;;;;;;24.50;90.10;;;;;;5051713;28;19915;-35
2021/05/04 11:44:31;;;;;;;;;;;24.40;90.80;;;;;;5050425;28;19909;-36
2021/05/04 11:47:16;;;;;;;;;;;24.40;90.60;;;;;;4942693;28;19956;-35
2021/05/04 11:49:42;;;;;;;;;;;24.30;90.50;;;;;;4990841;28;19993;-35
2021/05/04 11:52:08;;;;;;;;;;;24.30;90.80;;;;;;4991005;28;19918;-34
2021/05/04 11:54:35;;;;;;;;;;;24.20;90.90;;;;;;4990985;28;19965;-34
2021/05/04 11:57:01;;;;;;;;;;;24.20;90.40;;;;;;4990709;28;20493;-34
2021/05/04 11:59:27;;;;;;;;;;;24.10;88.80;;;;;;4990895;28;19921;-34
2021/05/04 12:01:53;;;;;;;;;;;24.00;88.00;;;;;;4990998;28;20418;-34
2021/05/04 12:04:19;;;;;;;;;;;24.00;87.20;;;;;;4991030;28;20000;-34
2021/05/04 12:06:48;;;;;;;;;;;23.90;87.50;;;;;;4990890;28;20280;-34
2021/05/04 12:09:17;;;;;;;;;;;23.90;87.20;;;;;;4990987;28;19916;-34
2021/05/04 12:11:42;;;;;;;;;;;23.90;87.20;;;;;;4977784;28;20019;-37
2021/05/04 12:14:08;;;;;;;;;;;23.80;86.90;;;;;;5030314;28;19945;-34
2021/05/04 12:16:34;;;;;;;;;;;23.80;86.20;;;;;;5030259;28;19999;-35
2021/05/04 12:19:00;;;;;;;;;;;23.80;88.00;;;;;;5070171;28;20344;-34
2021/05/04 12:21:26;;;;;;;;;;;23.80;88.80;;;;;;5070422;28;20007;-34
2021/05/04 12:23:51;;;;;;;;;;;23.80;89.90;;;;;;5086871;28;19999;-34
2021/05/04 12:26:19;;;;;;;;;;;23.80;90.10;;;;;;5037422;28;19934;-34
2021/05/04 12:28:46;;;;;;;;;;;23.70;90.40;;;;;;5076565;28;19934;-34
2021/05/04 12:31:15;;;;;;;;;;;23.80;90.40;;;;;;5074075;28;19916;-34
2021/05/04 12:33:44;;;;;;;;;;;23.80;90.30;;;;;;5075990;28;19912;-34
2021/05/04 12:36:21;;;;;;;;;;;23.80;88.30;;;;;;5073326;28;19955;-34
2021/05/04 12:38:50;;;;;;;;;;;23.80;88.00;;;;;;5063806;28;19915;-34
2021/05/04 12:41:17;;;;;;;;;;;23.80;89.30;;;;;;5077160;28;19919;-34
2021/05/04 12:44:08;;;;;;;;;;;23.90;90.20;;;;;;5077303;28;19909;-34
2021/05/04 12:46:34;;;;;;;;;;;23.80;89.90;;;;;;5077243;28;19993;-34
2021/05/04 12:49:00;;;;;;;;;;;23.90;89.80;;;;;;5076996;28;19934;-34
2021/05/04 12:51:27;;;;;;;;;;;23.90;89.80;;;;;;5077094;28;19924;-34
2021/05/04 12:54:03;;;;;;;;;;;23.90;90.00;;;;;;5092068;28;20017;-34
2021/05/04 12:56:30;;;;;;;;;;;23.90;88.60;;;;;;5074980;28;20300;-34
2021/05/04 12:58:58;;;;;;;;;;;23.90;87.90;;;;;;5071509;28;20360;-34
2021/05/04 13:01:41;;;;;;;;;;;23.90;88.00;;;;;;5065155;28;19908;-34
2021/05/04 13:04:15;;;;;;;;;;;23.90;88.00;;;;;;5058046;28;19963;-34
2021/05/04 13:06:48;;;;;;;;;;;24.00;87.60;;;;;;5056511;28;19909;-35
2021/05/04 13:09:20;;;;;;;;;;;23.90;89.30;;;;;;5056201;28;20062;-34
2021/05/04 13:30:43;;;;;;;;;;;24.10;87.70;;;;;;5056438;28;19930;-34
2021/05/04 13:33:12;;;;;;;;;;;24.10;88.10;;;;;;5056195;28;19915;-34
2021/05/04 13:35:49;;;;;;;;;;;24.20;89.70;;;;;;5056123;28;19930;-34
2021/05/04 13:49:26;;;;;;;;;;;24.30;90.10;;;;;;5024659;28;19995;-36
2021/05/04 13:51:51;;;;;;;;;;;24.40;90.20;;;;;;5013563;28;19996;-34
2021/05/04 13:54:18;;;;;;;;;;;24.50;90.20;;;;;;4997628;28;20439;-34
2021/05/04 13:56:44;;;;;;;;;;;24.50;90.40;;;;;;5013628;28;19915;-35
2021/05/04 13:59:09;;;;;;;;;;;24.60;90.60;;;;;;5020624;28;19917;-36
2021/05/04 14:01:40;;;;;;;;;;;24.60;90.60;;;;;;5006970;28;20292;-35
2021/05/04 14:28:22;;;;;;;;;;;23.90;90.00;;;;;;5054372;28;19922;-55
